Time;durP1;ratioP1;P1;durP2;ratioP2;P2;SDS_P1;SDS_P2;PMS_P1;PMS_P2;Temp;Humidity;BMP_temperature;BMP_pressure;BME280_temperature;BME280_humidity;BME280_pressure;Samples;Min_cycle;Max_cycle;Signal;HPM_P1;HPM_P2
2022/11/23 00:01:17;;;;;;;5.37;1.40;;;5.70;98.00;;;;;;5014842;28;20487;-65
2022/11/23 00:03:44;;;;;;;1.20;1.10;;;5.70;98.00;;;;;;5014681;28;20461;-65
2022/11/23 00:06:12;;;;;;;1.80;1.40;;;5.60;98.00;;;;;;5014603;28;20460;-65
2022/11/23 00:08:39;;;;;;;3.10;1.90;;;5.50;98.00;;;;;;4997313;28;20466;-65
2022/11/23 00:11:08;;;;;;;1.67;1.30;;;5.40;98.00;;;;;;5014579;28;20455;-65
2022/11/23 00:13:35;;;;;;;2.20;1.57;;;5.40;98.00;;;;;;5014491;28;20489;-65
2022/11/23 00:16:05;;;;;;;1.80;1.40;;;5.40;98.00;;;;;;5014766;28;20455;-65
2022/11/23 00:18:32;;;;;;;8.53;2.90;;;5.30;98.00;;;;;;5014424;28;20880;-65
2022/11/23 00:20:59;;;;;;;1.40;1.30;;;5.30;98.00;;;;;;5014332;28;20483;-65
2022/11/23 00:23:26;;;;;;;1.53;1.50;;;5.20;98.00;;;;;;5014326;28;20464;-65
2022/11/23 00:25:53;;;;;;;1.37;1.33;;;5.00;98.00;;;;;;5014457;28;20454;-65
2022/11/23 00:28:22;;;;;;;2.67;1.57;;;4.90;98.00;;;;;;5014393;28;20861;-65
2022/11/23 00:30:50;;;;;;;1.20;1.17;;;4.90;98.00;;;;;;5014138;28;20470;-65
2022/11/23 00:33:17;;;;;;;1.30;1.20;;;4.80;98.00;;;;;;5014220;28;20990;-65
2022/11/23 00:35:44;;;;;;;1.87;1.43;;;4.90;98.00;;;;;;4997060;28;20466;-65
2022/11/23 00:38:12;;;;;;;1.97;1.87;;;4.80;98.00;;;;;;5014429;28;20467;-65
2022/11/23 00:40:39;;;;;;;1.53;1.27;;;4.80;98.00;;;;;;5014291;28;20516;-65
2022/11/23 00:43:06;;;;;;;1.70;1.57;;;4.80;98.00;;;;;;5014051;28;20455;-65
2022/11/23 00:45:35;;;;;;;1.30;1.30;;;4.70;98.00;;;;;;5014503;28;20458;-65
2022/11/23 00:48:02;;;;;;;1.33;1.33;;;4.70;98.00;;;;;;5014042;28;20521;-65
2022/11/23 00:50:29;;;;;;;2.63;1.30;;;4.80;98.00;;;;;;4996608;28;20459;-65
2022/11/23 00:52:56;;;;;;;2.93;1.50;;;4.70;98.00;;;;;;5013780;28;20453;-65
2022/11/23 00:55:24;;;;;;;1.50;1.20;;;4.70;98.00;;;;;;5014028;28;20454;-65
2022/11/23 00:57:50;;;;;;;1.20;1.20;;;4.60;98.00;;;;;;5013956;28;20516;-65
2022/11/23 01:00:19;;;;;;;1.30;1.10;;;4.50;98.00;;;;;;5013897;28;20460;-65
2022/11/23 01:02:48;;;;;;;1.87;1.30;;;4.50;98.00;;;;;;4996425;28;20515;-65
2022/11/23 01:05:15;;;;;;;2.27;1.53;;;4.60;98.00;;;;;;4996508;28;21043;-65
2022/11/23 01:07:42;;;;;;;1.60;1.30;;;4.50;98.00;;;;;;5013718;28;20460;-65
2022/11/23 01:10:10;;;;;;;1.20;1.13;;;4.40;98.00;;;;;;5013540;28;20467;-65
2022/11/23 01:12:37;;;;;;;1.77;1.30;;;4.40;98.00;;;;;;5013513;28;20453;-66
2022/11/23 01:15:05;;;;;;;1.53;1.50;;;4.40;98.00;;;;;;5012348;28;20468;-65
2022/11/23 01:17:33;;;;;;;1.30;1.13;;;4.30;98.00;;;;;;5013370;28;20457;-65
2022/11/23 01:20:02;;;;;;;1.30;1.23;;;4.30;98.00;;;;;;5013284;28;20466;-65
2022/11/23 01:22:29;;;;;;;1.47;1.20;;;4.30;98.00;;;;;;5013324;28;20489;-65
2022/11/23 01:24:56;;;;;;;1.50;1.27;;;4.30;98.00;;;;;;4996310;28;20943;-65
2022/11/23 01:27:23;;;;;;;1.93;1.37;;;4.40;98.00;;;;;;4996183;28;20484;-65
2022/11/23 01:29:50;;;;;;;1.97;1.30;;;4.40;98.00;;;;;;4995881;28;20516;-65
2022/11/23 01:32:17;;;;;;;2.57;1.77;;;4.50;98.00;;;;;;4995929;28;20465;-65
2022/11/23 01:34:44;;;;;;;3.30;2.23;;;4.40;98.00;;;;;;5013280;28;20484;-65
2022/11/23 01:37:12;;;;;;;1.30;1.10;;;4.40;98.00;;;;;;5013436;28;20463;-65
2022/11/23 01:39:44;;;;;;;1.70;1.30;;;4.50;98.00;;;;;;5013350;28;20456;-65
2022/11/23 01:42:11;;;;;;;2.03;1.20;;;4.70;98.00;;;;;;5013043;28;20486;-65
2022/11/23 01:44:38;;;;;;;2.37;1.50;;;4.80;98.00;;;;;;5013040;28;20905;-65
2022/11/23 01:47:07;;;;;;;1.20;1.20;;;4.60;98.00;;;;;;5012851;28;20539;-65
2022/11/23 01:49:39;;;;;;;1.40;1.20;;;4.60;98.00;;;;;;5012789;28;20465;-65
2022/11/23 01:52:09;;;;;;;1.53;1.40;;;4.50;98.00;;;;;;5012818;28;20459;-65
2022/11/23 01:54:43;;;;;;;2.50;1.40;;;4.40;98.00;;;;;;4995051;28;20470;-65
2022/11/23 01:57:17;;;;;;;1.20;1.10;;;4.40;98.00;;;;;;5012827;28;20466;-65
2022/11/23 01:59:46;;;;;;;2.07;1.60;;;4.40;98.00;;;;;;5012587;28;20824;-65
2022/11/23 02:02:17;;;;;;;1.20;1.17;;;4.40;98.00;;;;;;4995221;28;20489;-65
2022/11/23 02:04:48;;;;;;;2.03;1.37;;;4.50;98.00;;;;;;4995981;28;20547;-65
2022/11/23 02:07:17;;;;;;;1.40;1.30;;;4.60;98.00;;;;;;5012493;28;20465;-65
2022/11/23 02:09:46;;;;;;;1.60;1.23;;;4.60;98.00;;;;;;5012479;28;20518;-65
2022/11/23 02:12:14;;;;;;;1.70;1.60;;;4.60;98.00;;;;;;5012414;28;20488;-65
2022/11/23 02:14:42;;;;;;;1.20;1.00;;;4.80;98.00;;;;;;5012724;28;20882;-65
2022/11/23 02:17:10;;;;;;;1.40;1.20;;;5.00;98.00;;;;;;5012322;28;20474;-65
2022/11/23 02:19:43;;;;;;;5.60;2.50;;;4.90;98.00;;;;;;5012375;28;20809;-65
2022/11/23 02:22:18;;;;;;;6.67;1.47;;;4.70;98.00;;;;;;4994740;28;20496;-65
2022/11/23 02:24:52;;;;;;;1.33;1.20;;;4.90;98.00;;;;;;5012335;28;20957;-65
2022/11/23 02:27:22;;;;;;;2.30;1.50;;;4.90;98.00;;;;;;5012123;28;20466;-65
2022/11/23 02:29:50;;;;;;;4.33;1.60;;;5.00;98.00;;;;;;5012180;28;20475;-65
2022/11/23 02:32:21;;;;;;;2.03;1.20;;;5.00;98.00;;;;;;5012421;28;20880;-65
2022/11/23 02:34:49;;;;;;;2.63;1.80;;;5.00;98.00;;;;;;5012102;28;20982;-65
2022/11/23 02:37:18;;;;;;;2.07;1.23;;;5.10;98.00;;;;;;5012159;28;20468;-65
2022/11/23 02:39:48;;;;;;;1.50;1.30;;;4.90;98.00;;;;;;5011964;28;20472;-65
2022/11/23 02:42:15;;;;;;;2.23;1.40;;;4.80;98.00;;;;;;5011973;28;20486;-65
2022/11/23 02:44:51;;;;;;;1.43;1.20;;;4.80;98.00;;;;;;5011910;28;20461;-65
2022/11/23 02:47:18;;;;;;;1.20;1.00;;;4.70;98.00;;;;;;5011882;28;20685;-65
2022/11/23 02:49:47;;;;;;;3.40;2.20;;;4.70;98.00;;;;;;5011723;28;20461;-65
2022/11/23 02:52:15;;;;;;;1.30;1.30;;;4.70;98.00;;;;;;4994455;28;20878;-65
2022/11/23 02:54:42;;;;;;;1.90;1.47;;;4.60;98.00;;;;;;5011745;28;20956;-65
2022/11/23 02:57:09;;;;;;;1.47;1.10;;;4.60;98.00;;;;;;4994338;28;20458;-65
2022/11/23 02:59:37;;;;;;;2.40;1.80;;;4.70;98.00;;;;;;5011563;28;20495;-65
2022/11/23 03:02:06;;;;;;;1.50;1.20;;;4.70;98.00;;;;;;5011550;28;20483;-65
2022/11/23 03:04:36;;;;;;;3.13;1.60;;;4.70;98.00;;;;;;5011339;28;20458;-65
2022/11/23 03:07:03;;;;;;;1.43;1.40;;;4.60;98.00;;;;;;5011644;28;20466;-65
2022/11/23 03:09:31;;;;;;;1.20;1.10;;;4.50;98.00;;;;;;5011580;28;20467;-65
2022/11/23 03:11:58;;;;;;;4.90;1.53;;;4.30;98.00;;;;;;5011545;28;20494;-65
2022/11/23 03:14:25;;;;;;;1.40;1.30;;;4.20;98.00;;;;;;5011628;28;20510;-65
2022/11/23 03:16:52;;;;;;;2.80;1.47;;;4.10;98.00;;;;;;5011450;28;20499;-65
2022/11/23 03:19:21;;;;;;;1.30;1.10;;;4.20;98.00;;;;;;5011585;28;20473;-65
2022/11/23 03:21:55;;;;;;;1.60;1.37;;;4.40;98.00;;;;;;5011474;28;20630;-65
2022/11/23 03:24:22;;;;;;;1.20;1.10;;;4.40;98.00;;;;;;5011564;28;20468;-65
2022/11/23 03:26:49;;;;;;;1.93;1.50;;;4.40;98.00;;;;;;4994464;28;20961;-65
2022/11/23 03:29:16;;;;;;;2.23;1.67;;;4.30;98.00;;;;;;5011725;28;20843;-65
2022/11/23 03:31:43;;;;;;;1.70;1.50;;;4.20;98.00;;;;;;5011854;28;20459;-65
2022/11/23 03:34:11;;;;;;;2.63;1.80;;;4.00;98.00;;;;;;5011263;28;20453;-65
2022/11/23 03:36:39;;;;;;;1.90;1.50;;;4.00;98.00;;;;;;5010312;28;20466;-65
2022/11/23 03:39:07;;;;;;;2.40;2.30;;;3.90;98.00;;;;;;5011479;28;20474;-65
2022/11/23 03:41:34;;;;;;;2.17;1.40;;;3.80;98.00;;;;;;4977848;28;20484;-65
2022/11/23 03:44:05;;;;;;;1.33;1.30;;;3.80;98.00;;;;;;5011157;28;20891;-65
2022/11/23 03:46:32;;;;;;;1.60;1.30;;;3.70;98.00;;;;;;5011197;28;20461;-65
2022/11/23 03:48:59;;;;;;;2.23;1.43;;;3.60;98.00;;;;;;5011160;28;20563;-65
2022/11/23 03:51:26;;;;;;;1.43;1.20;;;3.50;98.00;;;;;;5011241;28;20461;-65
2022/11/23 03:53:54;;;;;;;1.67;1.30;;;3.60;98.00;;;;;;5011070;28;20463;-65
2022/11/23 03:56:23;;;;;;;2.93;1.80;;;3.70;98.00;;;;;;5011106;28;20462;-65
2022/11/23 03:58:50;;;;;;;5.93;2.03;;;3.60;98.00;;;;;;5011104;28;20517;-65
2022/11/23 04:01:20;;;;;;;1.80;1.50;;;3.50;98.00;;;;;;5010968;28;20469;-65
2022/11/23 04:03:47;;;;;;;1.57;1.47;;;3.50;98.00;;;;;;5010995;28;20469;-65
2022/11/23 04:06:14;;;;;;;1.40;1.40;;;3.60;98.00;;;;;;5011064;28;20456;-65
2022/11/23 04:08:41;;;;;;;1.40;1.20;;;3.40;98.00;;;;;;5010933;28;20475;-65
2022/11/23 04:11:09;;;;;;;2.20;1.73;;;3.50;98.00;;;;;;4993708;28;20460;-65
2022/11/23 04:13:36;;;;;;;2.10;1.30;;;3.60;98.00;;;;;;5011257;28;20458;-65
2022/11/23 04:16:06;;;;;;;4.50;1.87;;;3.70;98.00;;;;;;5010861;28;20465;-65
2022/11/23 04:18:33;;;;;;;1.67;1.57;;;3.80;98.00;;;;;;4997917;28;20487;-65
2022/11/23 04:21:00;;;;;;;1.60;1.30;;;3.80;98.00;;;;;;5014205;28;20465;-65
2022/11/23 04:23:27;;;;;;;1.40;1.30;;;3.80;98.00;;;;;;5014488;28;20500;-65
2022/11/23 04:25:56;;;;;;;1.83;1.30;;;3.80;98.00;;;;;;5014231;28;20514;-65
2022/11/23 04:28:24;;;;;;;1.70;1.43;;;3.70;98.00;;;;;;5014303;28;20531;-65
2022/11/23 04:30:51;;;;;;;1.73;1.33;;;3.80;98.00;;;;;;5014321;28;20963;-65
2022/11/23 04:33:18;;;;;;;1.77;1.30;;;3.90;98.00;;;;;;5014197;28;20462;-65
2022/11/23 04:35:45;;;;;;;1.20;1.10;;;4.10;98.00;;;;;;5014235;28;20462;-65
2022/11/23 04:38:12;;;;;;;2.23;1.67;;;4.20;98.00;;;;;;5014040;28;20461;-65
2022/11/23 04:40:39;;;;;;;1.40;1.37;;;4.30;98.00;;;;;;5014330;28;20565;-65
2022/11/23 04:43:08;;;;;;;2.20;1.63;;;4.40;98.00;;;;;;5014015;28;20842;-65
2022/11/23 04:45:39;;;;;;;1.60;1.10;;;4.50;98.00;;;;;;5014202;28;20827;-65
2022/11/23 04:48:06;;;;;;;1.80;1.50;;;4.60;98.00;;;;;;5013941;28;20455;-65
2022/11/23 04:50:34;;;;;;;2.00;1.40;;;4.50;98.00;;;;;;5014032;28;20473;-65
2022/11/23 04:53:01;;;;;;;1.40;1.23;;;4.70;98.00;;;;;;4996660;28;20956;-65
2022/11/23 04:55:28;;;;;;;1.70;1.50;;;4.60;98.00;;;;;;5014041;28;20467;-65
2022/11/23 04:57:56;;;;;;;1.33;1.10;;;4.70;98.00;;;;;;4996364;28;20462;-65
2022/11/23 05:00:23;;;;;;;2.00;1.30;;;4.60;98.00;;;;;;5013624;28;20463;-65
2022/11/23 05:02:53;;;;;;;1.70;1.20;;;4.70;98.00;;;;;;5013594;28;20487;-65
2022/11/23 05:05:20;;;;;;;2.53;1.60;;;4.70;98.00;;;;;;5013284;28;20823;-65
2022/11/23 05:07:47;;;;;;;1.50;1.10;;;4.50;98.00;;;;;;5013820;28;20878;-65
2022/11/23 05:10:14;;;;;;;2.73;2.20;;;4.50;98.00;;;;;;5013961;28;20457;-65
2022/11/23 05:12:41;;;;;;;2.07;1.73;;;4.40;98.00;;;;;;5013839;28;20457;-65
2022/11/23 05:15:12;;;;;;;1.63;1.20;;;4.40;98.00;;;;;;5013744;28;20457;-65
2022/11/23 05:17:39;;;;;;;1.40;1.30;;;4.40;98.00;;;;;;5013540;28;20486;-65
2022/11/23 05:20:09;;;;;;;2.50;1.33;;;4.50;98.00;;;;;;5013339;28;20821;-65
2022/11/23 05:22:36;;;;;;;1.90;1.50;;;4.60;98.00;;;;;;5013302;28;20492;-65
2022/11/23 05:25:03;;;;;;;1.97;1.40;;;4.60;98.00;;;;;;5013294;28;20465;-65
2022/11/23 05:27:30;;;;;;;2.30;1.83;;;4.60;98.00;;;;;;5013166;28;20467;-65
2022/11/23 05:29:57;;;;;;;3.40;1.57;;;4.90;98.00;;;;;;5011146;28;20471;-65
2022/11/23 05:32:24;;;;;;;2.23;1.40;;;4.90;98.00;;;;;;5013319;28;20458;-65
2022/11/23 05:34:51;;;;;;;1.30;1.13;;;4.70;98.00;;;;;;5013045;28;20460;-65
2022/11/23 05:37:20;;;;;;;2.20;1.50;;;4.70;98.00;;;;;;5012853;28;20513;-65
2022/11/23 05:39:47;;;;;;;1.30;1.30;;;4.70;98.00;;;;;;5013026;28;20464;-65
2022/11/23 05:42:16;;;;;;;2.07;1.63;;;4.60;98.00;;;;;;5013162;28;20482;-65
2022/11/23 05:44:44;;;;;;;1.90;1.63;;;4.60;98.00;;;;;;5012912;28;20469;-65
2022/11/23 05:47:11;;;;;;;1.83;1.50;;;4.60;98.00;;;;;;5012920;28;20528;-65
2022/11/23 05:49:38;;;;;;;1.67;1.43;;;4.60;98.00;;;;;;5012781;28;20456;-65
2022/11/23 05:52:05;;;;;;;1.73;1.43;;;4.70;98.00;;;;;;5012747;28;20866;-65
2022/11/23 05:54:34;;;;;;;2.20;1.60;;;4.60;98.00;;;;;;5012741;28;20549;-65
2022/11/23 05:57:01;;;;;;;1.83;1.53;;;4.50;98.00;;;;;;5012621;28;20957;-65
2022/11/23 05:59:28;;;;;;;1.63;1.53;;;4.50;98.00;;;;;;5012926;28;20456;-65
2022/11/23 06:01:55;;;;;;;3.67;1.60;;;4.30;98.00;;;;;;5012806;28;20948;-65
2022/11/23 06:04:22;;;;;;;2.37;1.40;;;4.30;98.00;;;;;;5013026;28;20464;-65
2022/11/23 06:06:49;;;;;;;3.30;1.93;;;4.20;98.00;;;;;;5012989;28;20456;-65
2022/11/23 06:09:16;;;;;;;4.60;2.13;;;4.20;98.00;;;;;;5012473;28;20471;-65
2022/11/23 06:11:47;;;;;;;1.50;1.30;;;4.10;98.00;;;;;;5012675;28;20469;-65
2022/11/23 06:14:14;;;;;;;1.37;1.33;;;4.00;98.00;;;;;;5011220;28;20452;-65
2022/11/23 06:16:42;;;;;;;2.20;1.60;;;4.00;98.00;;;;;;5012580;28;20474;-65
2022/11/23 06:19:09;;;;;;;2.63;1.80;;;4.10;98.00;;;;;;5012519;28;20459;-65
2022/11/23 06:21:36;;;;;;;1.70;1.60;;;4.00;98.00;;;;;;5012431;28;20469;-65
2022/11/23 06:24:03;;;;;;;1.83;1.47;;;3.90;98.00;;;;;;5012137;28;20492;-65
2022/11/23 06:26:30;;;;;;;2.27;1.43;;;3.60;98.00;;;;;;5012353;28;20509;-65
2022/11/23 06:28:59;;;;;;;1.67;1.60;;;3.60;98.00;;;;;;5012054;28;20468;-65
2022/11/23 06:31:26;;;;;;;1.50;1.40;;;3.50;98.00;;;;;;5011282;28;20460;-65
2022/11/23 06:33:54;;;;;;;1.50;1.30;;;3.40;98.00;;;;;;5011951;28;20469;-65
2022/11/23 06:36:21;;;;;;;3.30;1.87;;;3.50;98.00;;;;;;5011891;28;20515;-65
2022/11/23 06:38:51;;;;;;;2.20;1.70;;;3.40;98.00;;;;;;5012090;28;20974;-65
2022/11/23 06:41:18;;;;;;;1.50;1.50;;;3.30;98.00;;;;;;5011955;28;20453;-65
2022/11/23 06:43:46;;;;;;;1.73;1.37;;;3.20;98.00;;;;;;5012095;28;20479;-65
2022/11/23 06:46:17;;;;;;;1.60;1.30;;;3.30;98.00;;;;;;5011918;28;20454;-65
2022/11/23 06:48:44;;;;;;;3.33;2.50;;;3.30;98.00;;;;;;5012101;28;20460;-65
2022/11/23 06:51:11;;;;;;;1.40;1.30;;;3.40;98.00;;;;;;5011840;28;20608;-65
2022/11/23 06:53:38;;;;;;;2.17;1.40;;;3.30;98.00;;;;;;5012147;28;20885;-65
2022/11/23 06:56:06;;;;;;;2.70;1.63;;;3.30;98.00;;;;;;5012022;28;20458;-65
2022/11/23 06:58:33;;;;;;;2.50;1.70;;;3.20;98.00;;;;;;5012137;28;20452;-65
2022/11/23 07:01:00;;;;;;;2.50;2.13;;;3.10;98.00;;;;;;5011790;28;20504;-65
2022/11/23 07:03:29;;;;;;;1.50;1.40;;;3.10;98.00;;;;;;5011650;28;20579;-65
2022/11/23 07:05:56;;;;;;;1.70;1.40;;;3.00;98.00;;;;;;5011653;28;20459;-65
2022/11/23 07:08:24;;;;;;;3.40;2.40;;;2.90;98.00;;;;;;5011812;28;20472;-65
2022/11/23 07:10:51;;;;;;;1.70;1.53;;;3.00;98.00;;;;;;5011682;28;20488;-65
2022/11/23 07:13:18;;;;;;;1.90;1.83;;;2.90;98.00;;;;;;5011760;28;20464;-65
2022/11/23 07:15:45;;;;;;;1.67;1.57;;;2.90;98.00;;;;;;5010493;28;20596;-64
2022/11/23 07:18:13;;;;;;;2.70;1.90;;;3.00;98.00;;;;;;5011563;28;20468;-64
2022/11/23 07:20:41;;;;;;;4.33;1.60;;;3.00;98.00;;;;;;5011429;28;20498;-64
2022/11/23 07:23:10;;;;;;;2.47;1.67;;;3.00;98.00;;;;;;5011244;28;20489;-69
2022/11/23 07:25:38;;;;;;;3.27;2.27;;;3.10;98.00;;;;;;5010353;28;20456;-69
2022/11/23 07:28:07;;;;;;;3.83;2.00;;;3.10;98.00;;;;;;5011696;28;20967;-69
2022/11/23 07:30:35;;;;;;;1.87;1.70;;;3.10;98.00;;;;;;5011392;28;20472;-69
2022/11/23 07:33:07;;;;;;;3.97;2.10;;;3.30;98.00;;;;;;5011431;28;20873;-69
2022/11/23 07:35:34;;;;;;;1.63;1.43;;;3.20;98.00;;;;;;5010984;28;20464;-69
2022/11/23 07:38:05;;;;;;;2.70;2.10;;;3.10;98.00;;;;;;5011329;28;20467;-69
2022/11/23 07:40:32;;;;;;;2.60;1.67;;;3.00;98.00;;;;;;5011422;28;20460;-69
2022/11/23 07:43:02;;;;;;;1.83;1.70;;;3.00;98.00;;;;;;5011260;28;20510;-70
2022/11/23 07:45:30;;;;;;;2.10;1.63;;;3.00;98.00;;;;;;5011294;28;20467;-69
2022/11/23 07:48:00;;;;;;;1.57;1.37;;;2.90;98.00;;;;;;5011471;28;20505;-70
2022/11/23 07:50:27;;;;;;;5.10;2.80;;;3.00;98.00;;;;;;5011321;28;20473;-70
2022/11/23 07:52:55;;;;;;;3.63;1.83;;;3.10;98.00;;;;;;5014419;28;20452;-70
2022/11/23 07:55:24;;;;;;;2.20;2.00;;;3.10;98.00;;;;;;5015070;28;20957;-69
2022/11/23 07:57:55;;;;;;;1.90;1.83;;;3.20;98.00;;;;;;5015003;28;20469;-70
2022/11/23 08:00:23;;;;;;;4.53;1.90;;;3.10;98.00;;;;;;5013834;28;20465;-70
2022/11/23 08:02:50;;;;;;;1.83;1.40;;;3.20;98.00;;;;;;5015039;28;20491;-70
2022/11/23 08:05:17;;;;;;;1.50;1.40;;;3.30;98.00;;;;;;5014815;28;20472;-70
2022/11/23 08:07:45;;;;;;;2.00;1.50;;;3.30;98.00;;;;;;5014919;28;20823;-70
2022/11/23 08:10:13;;;;;;;1.80;1.50;;;3.30;98.00;;;;;;5014629;28;20462;-69
2022/11/23 08:12:41;;;;;;;2.50;1.83;;;3.40;98.00;;;;;;5014719;28;20466;-69
2022/11/23 08:15:09;;;;;;;2.90;1.67;;;3.40;98.00;;;;;;5014460;28;20831;-69
2022/11/23 08:17:36;;;;;;;1.77;1.50;;;3.40;98.00;;;;;;5013683;28;20811;-70
2022/11/23 08:20:04;;;;;;;6.37;1.50;;;3.50;98.00;;;;;;5014415;28;20448;-69
2022/11/23 08:22:31;;;;;;;1.70;1.70;;;3.60;98.00;;;;;;5014524;28;20464;-70
2022/11/23 08:24:58;;;;;;;1.50;1.27;;;3.60;98.00;;;;;;5014467;28;20457;-69
2022/11/23 08:27:25;;;;;;;2.63;1.90;;;3.70;98.00;;;;;;5014571;28;20462;-69
2022/11/23 08:29:54;;;;;;;1.90;1.60;;;3.80;98.00;;;;;;5014242;28;20473;-69
2022/11/23 08:32:21;;;;;;;2.07;1.97;;;3.90;98.00;;;;;;5014257;28;20453;-67
2022/11/23 08:34:48;;;;;;;2.00;1.60;;;4.00;98.00;;;;;;5014326;28;20480;-69
2022/11/23 08:37:17;;;;;;;2.00;1.60;;;4.00;98.00;;;;;;5012060;28;20469;-70
2022/11/23 08:39:44;;;;;;;2.30;1.90;;;4.10;98.00;;;;;;5011373;28;20462;-70
2022/11/23 08:42:11;;;;;;;3.30;2.13;;;4.20;98.00;;;;;;5011737;28;20482;-70
2022/11/23 08:44:38;;;;;;;2.03;1.90;;;4.20;98.00;;;;;;5011853;28;20494;-69
2022/11/23 08:47:06;;;;;;;4.73;2.37;;;4.30;98.00;;;;;;5003773;28;20451;-70
2022/11/23 08:49:33;;;;;;;1.87;1.60;;;4.30;98.00;;;;;;5010192;28;21057;-69
2022/11/23 08:52:00;;;;;;;3.83;2.60;;;4.30;98.00;;;;;;5011787;28;20465;-70
2022/11/23 08:54:27;;;;;;;2.50;2.03;;;4.40;98.00;;;;;;5011534;28;20461;-70
2022/11/23 08:56:54;;;;;;;3.33;2.23;;;4.40;98.00;;;;;;5011920;28;20462;-70
2022/11/23 08:59:21;;;;;;;2.00;1.93;;;4.50;98.00;;;;;;5010331;28;20458;-66
2022/11/23 09:01:48;;;;;;;1.40;1.40;;;4.60;98.00;;;;;;5011787;28;20535;-66
2022/11/23 09:04:17;;;;;;;1.57;1.43;;;5.10;98.00;;;;;;5011279;28;20502;-65
2022/11/23 09:06:44;;;;;;;2.30;1.53;;;6.80;98.00;;;;;;5011683;28;20481;-70
2022/11/23 09:09:11;;;;;;;3.57;2.43;;;8.20;98.00;;;;;;5011116;28;20457;-70
2022/11/23 09:11:38;;;;;;;3.03;2.40;;;8.30;98.00;;;;;;5010896;28;20457;-69
2022/11/23 09:14:05;;;;;;;2.00;1.80;;;8.10;98.00;;;;;;5011232;28;20855;-70
2022/11/23 09:16:32;;;;;;;6.37;2.97;;;7.90;98.00;;;;;;5011267;28;20465;-70
2022/11/23 09:18:59;;;;;;;5.80;2.43;;;7.70;98.00;;;;;;5011012;28;20798;-71
2022/11/23 09:21:32;;;;;;;2.90;2.30;;;7.40;98.00;;;;;;5010910;28;20462;-71
2022/11/23 09:23:59;;;;;;;4.50;2.80;;;7.10;98.00;;;;;;5011065;28;20496;-72
2022/11/23 09:26:26;;;;;;;2.70;2.37;;;6.90;98.00;;;;;;5010980;28;20963;-71
2022/11/23 09:28:53;;;;;;;6.10;3.23;;;6.90;98.00;;;;;;5011070;28;20948;-71
2022/11/23 09:31:22;;;;;;;6.63;2.80;;;6.80;98.00;;;;;;5010140;28;20462;-71
2022/11/23 09:33:52;;;;;;;3.43;2.30;;;6.70;98.00;;;;;;5010524;28;20458;-70
2022/11/23 09:36:21;;;;;;;9.00;3.57;;;6.60;98.00;;;;;;4993518;28;20464;-70
2022/11/23 09:38:51;;;;;;;3.60;2.77;;;6.70;98.00;;;;;;5011134;28;20541;-71
2022/11/23 09:41:37;;;;;;;8.10;3.60;;;6.70;98.00;;;;;;5010775;28;20886;-70
2022/11/23 09:44:11;;;;;;;8.17;3.03;;;6.60;98.00;;;;;;5003283;28;20490;-70
2022/11/23 09:46:49;;;;;;;4.33;2.70;;;6.60;98.00;;;;;;5010574;28;20528;-70
2022/11/23 09:49:18;;;;;;;2.97;2.40;;;6.70;98.00;;;;;;5009192;28;20521;-71
2022/11/23 09:51:46;;;;;;;3.40;2.63;;;6.60;98.00;;;;;;5010416;28;20461;-70
2022/11/23 09:54:26;;;;;;;6.20;2.70;;;6.60;98.00;;;;;;5010050;28;20484;-71
2022/11/23 09:56:56;;;;;;;3.50;2.37;;;6.50;98.00;;;;;;5010090;28;20886;-70
2022/11/23 09:59:34;;;;;;;3.20;2.17;;;6.50;98.00;;;;;;5010154;28;20470;-71
2022/11/23 10:02:02;;;;;;;6.33;2.83;;;6.50;98.00;;;;;;5009992;28;20791;-70
2022/11/23 10:04:34;;;;;;;2.83;2.20;;;6.50;98.00;;;;;;5009596;28;20495;-71
2022/11/23 10:07:13;;;;;;;5.00;2.60;;;6.60;98.00;;;;;;4992383;28;20460;-72
2022/11/23 10:09:56;;;;;;;3.63;2.00;;;6.60;98.00;;;;;;5009678;28;20464;-64
2022/11/23 10:12:35;;;;;;;2.90;1.87;;;6.70;98.00;;;;;;5009982;28;20478;-71
2022/11/23 10:15:12;;;;;;;4.80;2.23;;;6.80;98.00;;;;;;5008859;28;20467;-70
2022/11/23 10:18:08;;;;;;;4.40;2.37;;;6.90;98.00;;;;;;5010053;28;20949;-71
2022/11/23 10:20:49;;;;;;;1.93;1.67;;;6.90;98.00;;;;;;4975899;28;20460;-71
2022/11/23 10:23:25;;;;;;;2.63;1.80;;;7.00;98.00;;;;;;5009441;28;20543;-71
2022/11/23 10:25:54;;;;;;;2.73;1.80;;;7.10;98.00;;;;;;5011462;28;20568;-67
2022/11/23 10:28:23;;;;;;;3.60;1.90;;;7.10;98.00;;;;;;5012562;28;20519;-71
2022/11/23 10:30:57;;;;;;;1.80;1.50;;;7.40;98.00;;;;;;5012807;28;20474;-71
2022/11/23 10:33:31;;;;;;;2.13;1.70;;;7.50;98.00;;;;;;5012136;28;20457;-71
2022/11/23 10:35:58;;;;;;;2.40;1.67;;;7.60;98.00;;;;;;5009537;28;20457;-71
2022/11/23 10:38:27;;;;;;;2.90;1.93;;;7.80;98.00;;;;;;5012005;28;20468;-71
2022/11/23 10:41:02;;;;;;;1.70;1.60;;;7.90;98.00;;;;;;5011989;28;20455;-71
2022/11/23 10:43:38;;;;;;;1.70;1.47;;;8.00;98.00;;;;;;5011865;28;20519;-71
2022/11/23 10:46:29;;;;;;;2.07;1.73;;;8.20;98.00;;;;;;5012275;28;20451;-71
2022/11/23 10:49:10;;;;;;;4.70;1.50;;;8.40;98.00;;;;;;5011895;28;20470;-71
2022/11/23 10:51:38;;;;;;;1.50;1.50;;;8.60;98.00;;;;;;5012054;28;20485;-71
2022/11/23 10:54:17;;;;;;;4.50;2.10;;;8.70;98.00;;;;;;5011626;28;20980;-71
2022/11/23 10:56:49;;;;;;;2.80;1.60;;;8.80;98.00;;;;;;5011936;28;20491;-71
2022/11/23 10:59:34;;;;;;;2.20;1.73;;;9.00;98.00;;;;;;5011853;28;20813;-71
2022/11/23 11:02:11;;;;;;;4.93;2.40;;;9.30;98.00;;;;;;5011674;28;20839;-71
2022/11/23 11:04:38;;;;;;;2.13;1.63;;;9.60;98.00;;;;;;5010632;28;21098;-71
2022/11/23 11:07:24;;;;;;;2.13;1.60;;;9.90;98.00;;;;;;5011565;28;20463;-71
2022/11/23 11:09:54;;;;;;;1.50;1.50;;;10.10;98.00;;;;;;5011606;28;20464;-71
2022/11/23 11:12:22;;;;;;;3.33;1.97;;;10.20;98.00;;;;;;5011688;28;20468;-71
2022/11/23 11:15:04;;;;;;;3.30;1.93;;;10.50;98.00;;;;;;5011406;28;20456;-71
2022/11/23 11:17:33;;;;;;;2.70;2.00;;;10.60;98.00;;;;;;5011867;28;20462;-71
2022/11/23 11:20:00;;;;;;;2.27;1.57;;;10.90;98.00;;;;;;5011473;28;20524;-71
2022/11/23 11:22:36;;;;;;;10.23;1.90;;;11.00;98.00;;;;;;5011659;28;20461;-71
2022/11/23 11:25:05;;;;;;;2.23;1.80;;;11.10;98.00;;;;;;5011489;28;20635;-71
2022/11/23 11:27:35;;;;;;;3.70;1.80;;;11.30;98.00;;;;;;5014393;28;20455;-71
2022/11/23 11:30:07;;;;;;;2.30;1.57;;;11.40;98.00;;;;;;5015451;28;20471;-71
2022/11/23 11:32:46;;;;;;;1.50;1.40;;;11.50;98.00;;;;;;5015652;28;20466;-71
2022/11/23 11:35:21;;;;;;;9.00;1.60;;;11.60;98.00;;;;;;5015468;28;20462;-71
2022/11/23 11:37:51;;;;;;;2.37;1.57;;;11.80;98.00;;;;;;5015698;28;20966;-71
2022/11/23 11:40:23;;;;;;;1.87;1.27;;;12.00;98.00;;;;;;5014248;28;20457;-72
2022/11/23 11:42:55;;;;;;;1.40;1.30;;;12.30;98.00;;;;;;5015198;28;20469;-71
2022/11/23 11:45:25;;;;;;;1.27;1.20;;;12.50;98.00;;;;;;5015298;28;20851;-71
2022/11/23 11:47:59;;;;;;;1.93;1.30;;;12.80;98.00;;;;;;5014965;28;20465;-71
2022/11/23 11:50:30;;;;;;;2.00;1.20;;;12.90;98.00;;;;;;5015211;28;20519;-71
2022/11/23 11:53:03;;;;;;;2.17;1.60;;;13.10;98.00;;;;;;5015086;28;20452;-71
2022/11/23 11:55:44;;;;;;;3.20;1.47;;;13.30;98.00;;;;;;5015056;28;20474;-71
2022/11/23 11:58:16;;;;;;;1.30;1.10;;;13.40;98.00;;;;;;5014196;28;20805;-71
2022/11/23 12:00:45;;;;;;;2.10;1.57;;;13.40;96.70;;;;;;5014991;28;20459;-71
2022/11/23 12:03:21;;;;;;;2.43;1.60;;;13.60;96.40;;;;;;5014975;28;20467;-71
2022/11/23 12:05:51;;;;;;;2.03;1.50;;;13.70;97.20;;;;;;5013588;28;20491;-71
2022/11/23 12:08:24;;;;;;;1.80;1.37;;;13.80;94.90;;;;;;5015315;28;20459;-71
2022/11/23 12:10:55;;;;;;;1.53;1.40;;;14.10;95.20;;;;;;5014735;28;20464;-71
2022/11/23 12:13:28;;;;;;;1.30;1.30;;;14.30;96.40;;;;;;5013831;28;20865;-72
2022/11/23 12:16:05;;;;;;;1.77;1.43;;;14.40;93.40;;;;;;5014755;28;20508;-71
2022/11/23 12:18:48;;;;;;;1.57;1.40;;;14.60;93.30;;;;;;5015039;28;20458;-71
2022/11/23 12:21:33;;;;;;;1.60;1.43;;;14.80;93.30;;;;;;5014991;28;20467;-71
2022/11/23 12:24:10;;;;;;;1.50;1.30;;;15.10;93.40;;;;;;5013520;28;21095;-71
2022/11/23 12:26:49;;;;;;;1.50;1.40;;;15.40;93.70;;;;;;5013614;28;20465;-71
2022/11/23 12:29:35;;;;;;;2.80;1.80;;;15.70;91.30;;;;;;4997685;28;20474;-71
2022/11/23 12:32:12;;;;;;;4.63;1.43;;;15.80;90.00;;;;;;5014724;28;20461;-71
2022/11/23 12:35:10;;;;;;;4.47;1.63;;;15.90;91.40;;;;;;5014417;28;20529;-71
2022/11/23 12:37:54;;;;;;;2.37;1.40;;;16.20;90.30;;;;;;5014135;28;20489;-71
2022/11/23 12:40:32;;;;;;;1.60;1.40;;;16.40;89.50;;;;;;5014206;28;20460;-71
2022/11/23 12:43:03;;;;;;;1.53;1.50;;;16.50;89.30;;;;;;5013057;28;20475;-71
2022/11/23 12:45:52;;;;;;;2.23;1.60;;;16.50;86.70;;;;;;5014220;28;20878;-71
2022/11/23 12:48:31;;;;;;;3.40;2.20;;;16.50;88.80;;;;;;5001536;28;20462;-71
2022/11/23 12:51:06;;;;;;;1.63;1.40;;;16.60;86.60;;;;;;5014140;28;20474;-71
2022/11/23 12:53:45;;;;;;;3.60;1.67;;;16.70;86.10;;;;;;5014042;28;20506;-71
2022/11/23 12:56:26;;;;;;;2.83;1.50;;;16.80;86.00;;;;;;5013901;28;20462;-71
2022/11/23 12:58:56;;;;;;;2.60;1.50;;;16.80;86.10;;;;;;5013979;28;20461;-72
2022/11/23 13:01:31;;;;;;;1.73;1.50;;;16.90;86.30;;;;;;5014394;28;20592;-72
2022/11/23 13:04:27;;;;;;;2.13;1.33;;;16.80;84.30;;;;;;5013755;28;20503;-72
2022/11/23 13:07:28;;;;;;;3.60;2.00;;;16.60;86.90;;;;;;5013881;28;20878;-72
2022/11/23 13:10:16;;;;;;;1.50;1.33;;;16.50;86.10;;;;;;5012607;28;20464;-71